Caplen, Texas
Current Conditions -  °F | °C
As of 8:15 PM on Friday 28 Nov 2014 (Local Time) from KXIH Reporting Station
NA  
Wind Chill: 64°   Ceiling: NA
Heat Index: 64°   Visibility: 10mi
Dew Point: 61°   Wind: 18mph
Humidity: 88%   Direction: 170°S
Pressure: 30.18"   Gusts: NA
Location:  29.4994°N, 94.5234°W
Report Text: KXIH 290215Z AUTO 17016KT 10SM 18/16 A3018 RMK A01
Loading
Personal Weather Stations






























Interactive Weather Map New forecast layout! Learn more

10-Day Weather Forecast

Advertisements
Track Severe Weather on mobile